createdAt,value
2018-12-24T00:01:06.185Z,0.00
2018-12-24T00:04:49.523Z,0.00
2018-12-24T00:10:41.016Z,0.00
2018-12-24T00:12:16.932Z,0.00
2018-12-24T00:14:26.324Z,0.00
2018-12-24T00:16:10.102Z,0.00
2018-12-24T00:18:24.844Z,0.00
2018-12-24T00:20:12.660Z,0.20
2018-12-24T00:23:49.288Z,0.00
2018-12-24T00:26:15.914Z,0.00
2018-12-24T00:29:56.009Z,0.60
2018-12-24T00:31:32.978Z,1.00
2018-12-24T00:36:02.781Z,0.00
2018-12-24T00:39:36.753Z,1.00
2018-12-24T00:41:24.133Z,0.60
2018-12-24T00:43:11.641Z,0.20
2018-12-24T00:44:58.435Z,0.00
2018-12-24T00:49:04.265Z,1.40
2018-12-24T00:50:54.138Z,3.00
2018-12-24T00:52:20.279Z,1.00
2018-12-24T00:54:25.630Z,3.40
2018-12-24T00:58:33.409Z,3.20
2018-12-24T01:00:09.403Z,4.20
2018-12-24T01:03:47.041Z,0.40
2018-12-24T01:05:24.746Z,1.80
2018-12-24T01:13:15.803Z,6.00
2018-12-24T01:17:18.890Z,1.00
2018-12-24T01:21:20.257Z,2.60
2018-12-24T01:24:42.646Z,1.00
2018-12-24T01:26:29.953Z,3.00
2018-12-24T01:28:16.867Z,4.00
2018-12-24T01:30:06.139Z,3.00
2018-12-24T01:33:43.577Z,3.60
2018-12-24T01:35:20.868Z,1.00
2018-12-24T01:37:35.742Z,1.00
2018-12-24T01:39:50.482Z,3.00
2018-12-24T01:41:45.060Z,3.00
2018-12-24T01:43:20.860Z,2.60
2018-12-24T01:44:56.877Z,3.00
2018-12-24T01:46:33.261Z,5.20
2018-12-24T01:48:09.047Z,3.00
2018-12-24T01:49:45.466Z,1.40
2018-12-24T01:52:14.709Z,1.80
2018-12-24T01:53:37.704Z,3.20
2018-12-24T01:55:52.463Z,1.00
2018-12-24T01:57:28.406Z,1.40
2018-12-24T01:59:23.093Z,2.20
2018-12-24T02:00:59.017Z,3.00
2018-12-24T02:02:34.686Z,3.00
2018-12-24T02:04:10.992Z,1.00
2018-12-24T02:07:46.733Z,1.00
2018-12-24T02:09:22.773Z,1.40
2018-12-24T02:10:58.457Z,1.00
2018-12-24T02:12:42.245Z,1.40
2018-12-24T02:14:13.520Z,1.00
2018-12-24T02:15:49.111Z,1.40
2018-12-24T02:17:25.715Z,3.00
2018-12-24T02:19:01.426Z,1.00
2018-12-24T02:20:56.188Z,0.00
2018-12-24T02:22:52.310Z,1.00
2018-12-24T02:24:28.212Z,0.20
2018-12-24T02:26:06.860Z,0.20
2018-12-24T02:27:44.875Z,1.00
2018-12-24T02:29:22.933Z,0.20
2018-12-24T02:33:06.263Z,0.00
2018-12-24T02:34:42.050Z,0.60
2018-12-24T02:36:17.764Z,0.40
2018-12-24T02:37:53.808Z,0.60
2018-12-24T02:39:29.674Z,0.00
2018-12-24T02:41:24.481Z,1.00
2018-12-24T02:43:02.358Z,0.00
2018-12-24T02:47:08.345Z,1.40
2018-12-24T02:48:55.215Z,1.00
2018-12-24T02:54:45.436Z,1.40
2018-12-24T03:01:59.051Z,1.40
2018-12-24T03:07:25.460Z,0.00
2018-12-24T03:09:31.222Z,3.00
2018-12-24T03:11:07.111Z,1.00
2018-12-24T03:13:02.862Z,3.60
2018-12-24T03:14:39.268Z,5.60
2018-12-24T03:16:15.555Z,3.60
2018-12-24T03:22:11.849Z,6.60
2018-12-24T03:23:43.740Z,4.40
2018-12-24T03:25:30.434Z,3.40
2018-12-24T03:27:06.366Z,4.20
2018-12-24T03:31:01.859Z,6.40
2018-12-24T03:32:48.886Z,5.60
2018-12-24T03:36:36.809Z,4.80
2018-12-24T03:46:31.213Z,4.60
2018-12-24T03:48:07.119Z,7.40
2018-12-24T03:49:42.761Z,3.80
2018-12-24T03:51:37.414Z,4.40
2018-12-24T03:53:47.715Z,6.60
2018-12-24T03:55:11.341Z,3.80
2018-12-24T04:01:19.317Z,3.00
2018-12-24T04:05:25.044Z,3.40
2018-12-24T04:11:16.266Z,3.20
2018-12-24T04:17:10.137Z,3.60
2018-12-24T04:23:12.504Z,4.00
2018-12-24T04:25:29.313Z,4.40
2018-12-24T04:27:05.276Z,5.60
2018-12-24T04:30:56.571Z,1.00
2018-12-24T04:32:50.086Z,6.20
2018-12-24T04:35:54.721Z,4.40
2018-12-24T04:37:32.210Z,4.00
2018-12-24T04:39:19.366Z,3.60
2018-12-24T04:41:34.229Z,3.80
2018-12-24T04:45:21.559Z,5.60
2018-12-24T04:49:27.349Z,4.00
2018-12-24T04:53:23.589Z,5.00
2018-12-24T04:55:18.290Z,3.80
2018-12-24T04:56:54.613Z,1.00
2018-12-24T04:59:09.476Z,3.00
2018-12-24T05:00:45.393Z,8.20
2018-12-24T05:02:40.710Z,6.00
2018-12-24T05:04:16.640Z,1.00
2018-12-24T05:08:08.231Z,4.40
2018-12-24T05:13:57.532Z,6.80
2018-12-24T05:15:33.287Z,6.60
2018-12-24T05:20:58.822Z,7.00
2018-12-24T05:22:34.466Z,6.60
2018-12-24T05:24:10.232Z,9.60
2018-12-24T05:26:36.813Z,6.40
2018-12-24T05:28:12.919Z,1.40
2018-12-24T05:29:59.877Z,9.00
2018-12-24T05:35:44.408Z,7.00
2018-12-24T05:37:59.075Z,9.00
2018-12-24T05:43:18.855Z,3.80
2018-12-24T05:47:25.843Z,11.00
2018-12-24T05:49:01.940Z,6.00
2018-12-24T05:51:30.064Z,4.00
2018-12-24T05:55:29.557Z,9.40
2018-12-24T05:57:16.522Z,10.00
2018-12-24T05:59:11.427Z,8.40
2018-12-24T06:01:26.259Z,4.80
2018-12-24T06:11:25.379Z,7.40
2018-12-24T06:15:03.258Z,9.80
2018-12-24T06:16:50.764Z,8.80
2018-12-24T06:18:38.131Z,6.80
2018-12-24T06:20:53.066Z,7.00
2018-12-24T06:27:08.694Z,4.00
2018-12-24T06:28:32.102Z,3.80
2018-12-24T06:30:26.990Z,7.00
2018-12-24T06:32:02.720Z,0.00
2018-12-24T06:33:44.298Z,0.20
2018-12-24T06:35:27.758Z,4.20
2018-12-24T06:37:03.770Z,3.00
2018-12-24T06:39:12.906Z,1.00
2018-12-24T06:40:47.233Z,3.00
2018-12-24T06:42:35.056Z,1.40
2018-12-24T06:46:26.058Z,1.00
2018-12-24T06:49:47.160Z,3.00
2018-12-24T06:55:33.276Z,6.00
2018-12-24T06:58:02.065Z,6.00
2018-12-24T07:03:37.772Z,8.20
2018-12-24T07:05:14.304Z,7.00
2018-12-24T07:06:51.804Z,9.60
2018-12-24T07:08:46.629Z,7.80
2018-12-24T07:10:25.099Z,3.00
2018-12-24T07:12:06.960Z,7.80
2018-12-24T07:13:44.012Z,9.80
2018-12-24T07:15:19.958Z,3.80
2018-12-24T07:19:08.712Z,1.00
2018-12-24T07:22:41.243Z,11.20
2018-12-24T07:26:43.759Z,1.00
2018-12-24T07:28:59.386Z,1.40
2018-12-24T07:30:36.388Z,4.40
2018-12-24T07:32:14.499Z,3.40
2018-12-24T07:36:01.360Z,3.00
2018-12-24T07:39:52.562Z,1.80
2018-12-24T07:41:33.817Z,4.00
2018-12-24T07:43:09.296Z,6.00
2018-12-24T07:44:45.167Z,3.40
2018-12-24T07:46:23.246Z,3.00
2018-12-24T07:48:13.534Z,3.00
2018-12-24T07:49:55.717Z,3.60
2018-12-24T07:54:03.586Z,20.80
2018-12-24T07:55:39.788Z,8.00
2018-12-24T07:59:18.545Z,3.80
2018-12-24T08:01:05.805Z,17.60
2018-12-24T08:03:13.518Z,10.20
2018-12-24T08:04:49.398Z,10.00
2018-12-24T08:06:36.601Z,6.00
2018-12-24T08:08:12.635Z,4.80
2018-12-24T08:10:28.096Z,8.00
2018-12-24T08:13:47.113Z,10.00
2018-12-24T08:20:08.302Z,6.00
2018-12-24T08:21:44.265Z,6.00
2018-12-24T08:23:39.073Z,6.40
2018-12-24T08:25:16.476Z,9.60
2018-12-24T08:26:53.779Z,3.40
2018-12-24T08:28:30.059Z,3.60
2018-12-24T08:30:09.203Z,3.80
2018-12-24T08:34:06.282Z,6.00
2018-12-24T08:37:46.269Z,4.00
2018-12-24T08:41:28.706Z,5.60
2018-12-24T08:43:05.391Z,3.60
2018-12-24T08:44:42.172Z,5.20
2018-12-24T08:46:18.370Z,3.00
2018-12-24T08:47:54.650Z,3.80
2018-12-24T08:49:30.837Z,8.20
2018-12-24T08:51:09.368Z,3.00
2018-12-24T08:52:49.797Z,3.80
2018-12-24T08:54:25.560Z,4.80
2018-12-24T08:56:02.869Z,7.40
2018-12-24T08:57:38.826Z,6.60
2018-12-24T08:59:20.131Z,3.20
2018-12-24T09:00:56.134Z,3.00
2018-12-24T09:02:33.121Z,8.00
2018-12-24T09:04:13.920Z,5.20
2018-12-24T09:05:50.478Z,8.40
2018-12-24T09:07:26.816Z,0.80
2018-12-24T09:09:02.950Z,4.80
2018-12-24T09:10:39.257Z,8.20
2018-12-24T09:12:18.346Z,9.00
2018-12-24T09:14:04.020Z,6.00
2018-12-24T09:15:40.268Z,10.00
2018-12-24T09:17:53.763Z,7.00
2018-12-24T09:19:19.735Z,4.40
2018-12-24T09:20:59.097Z,6.00
2018-12-24T09:23:12.841Z,6.20
2018-12-24T09:24:51.273Z,9.20
2018-12-24T09:26:47.881Z,7.00
2018-12-24T09:30:33.735Z,6.20
2018-12-24T09:32:09.798Z,4.00
2018-12-24T09:34:25.970Z,3.20
2018-12-24T09:36:04.962Z,6.00
2018-12-24T09:37:40.945Z,0.40
2018-12-24T09:39:20.324Z,5.60
2018-12-24T09:40:57.324Z,4.00
2018-12-24T09:42:33.664Z,2.60
2018-12-24T09:44:12.315Z,3.00
2018-12-24T09:46:07.557Z,2.60
2018-12-24T09:48:22.361Z,4.20
2018-12-24T09:50:20.458Z,3.00
2018-12-24T09:52:15.121Z,1.00
2018-12-24T09:53:50.929Z,0.00
2018-12-24T09:55:26.549Z,1.00
2018-12-24T09:57:06.287Z,6.00
2018-12-24T10:03:21.172Z,3.00
2018-12-24T10:05:18.087Z,6.20
2018-12-24T10:06:53.833Z,1.40
2018-12-24T10:08:31.715Z,2.80
2018-12-24T10:10:27.933Z,3.20
2018-12-24T10:12:04.386Z,1.00
2018-12-24T10:13:40.419Z,3.40
2018-12-24T10:15:27.874Z,3.80
2018-12-24T10:17:08.323Z,2.60
2018-12-24T10:18:47.351Z,6.80
2018-12-24T10:20:28.922Z,3.80
2018-12-24T10:22:06.846Z,5.60
2018-12-24T10:23:47.217Z,4.40
2018-12-24T10:25:35.465Z,3.00
2018-12-24T10:27:13.335Z,3.00
2018-12-24T10:28:50.529Z,3.40
2018-12-24T10:31:05.822Z,6.40
2018-12-24T10:32:44.041Z,5.00
2018-12-24T10:34:33.076Z,4.00
2018-12-24T10:36:08.916Z,3.20
2018-12-24T10:40:06.465Z,1.00
2018-12-24T10:44:16.965Z,4.00
2018-12-24T10:45:42.818Z,2.20
2018-12-24T10:47:58.405Z,3.00
2018-12-24T10:49:34.774Z,3.00
2018-12-24T10:51:10.571Z,1.40
2018-12-24T10:53:25.389Z,2.60
2018-12-24T10:55:04.710Z,3.40
2018-12-24T10:56:40.499Z,1.00
2018-12-24T10:58:18.343Z,3.00
2018-12-24T10:59:55.231Z,1.40
2018-12-24T11:01:31.233Z,3.00
2018-12-24T11:03:08.334Z,5.60
2018-12-24T11:04:44.241Z,3.00
2018-12-24T11:06:24.760Z,6.00
2018-12-24T11:08:00.728Z,6.40
2018-12-24T11:09:37.557Z,7.40
2018-12-24T11:11:13.565Z,3.00
2018-12-24T11:12:56.389Z,6.60
2018-12-24T11:14:35.661Z,5.20
2018-12-24T11:18:08.208Z,3.00
2018-12-24T11:20:38.786Z,6.00
2018-12-24T11:23:53.971Z,6.40
2018-12-24T11:26:21.308Z,5.60
2018-12-24T11:28:24.751Z,4.00
2018-12-24T11:32:15.692Z,5.20
2018-12-24T11:34:03.364Z,4.00
2018-12-24T11:37:42.208Z,5.60
2018-12-24T11:41:51.730Z,1.00
2018-12-24T11:43:32.838Z,4.00
2018-12-24T11:45:15.858Z,1.40
2018-12-24T11:47:33.237Z,7.80
2018-12-24T11:49:47.192Z,3.40
2018-12-24T11:51:30.080Z,5.20
2018-12-24T11:53:06.642Z,5.60
2018-12-24T11:54:45.303Z,2.20
2018-12-24T11:56:22.800Z,6.60
2018-12-24T11:58:13.299Z,7.00
2018-12-24T11:59:43.954Z,2.20
2018-12-24T12:01:21.452Z,4.00
2018-12-24T12:02:59.968Z,6.00
2018-12-24T12:04:45.212Z,8.20
2018-12-24T12:06:26.820Z,4.40
2018-12-24T12:08:04.826Z,7.00
2018-12-24T12:09:40.218Z,6.00
2018-12-24T12:11:15.962Z,8.20
2018-12-24T12:12:57.254Z,6.00
2018-12-24T12:14:34.925Z,6.00
2018-12-24T12:16:12.496Z,6.60
2018-12-24T12:17:52.205Z,3.40
2018-12-24T12:19:34.367Z,3.00
2018-12-24T12:21:12.402Z,1.40
2018-12-24T12:22:49.745Z,3.80
2018-12-24T12:24:31.419Z,4.00
2018-12-24T12:26:16.081Z,0.00
2018-12-24T12:27:55.201Z,1.00
2018-12-24T12:29:33.005Z,1.20
2018-12-24T12:31:17.780Z,3.20
2018-12-24T12:32:53.808Z,3.60
2018-12-24T12:34:37.897Z,3.00
2018-12-24T12:36:20.841Z,3.60
2018-12-24T12:37:56.784Z,1.00
2018-12-24T12:39:36.553Z,6.80
2018-12-24T12:41:15.843Z,0.00
2018-12-24T12:42:52.209Z,1.80
2018-12-24T12:44:39.823Z,2.60
2018-12-24T12:48:51.328Z,11.40
2018-12-24T12:50:34.387Z,11.60
2018-12-24T12:52:11.980Z,8.80
2018-12-24T12:53:49.055Z,13.60
2018-12-24T12:55:26.834Z,13.20
2018-12-24T12:57:02.966Z,12.40
2018-12-24T12:58:38.905Z,10.80
2018-12-24T13:04:52.436Z,20.60
2018-12-24T13:08:52.742Z,5.60
2018-12-24T13:15:24.227Z,8.40
2018-12-24T13:21:46.035Z,13.20
2018-12-24T13:23:49.695Z,13.00
2018-12-24T13:25:52.541Z,13.00
2018-12-24T13:30:20.190Z,7.00
2018-12-24T13:35:17.413Z,5.60
2018-12-24T13:36:53.646Z,6.60
2018-12-24T13:38:30.085Z,2.40
2018-12-24T13:40:07.541Z,3.40
2018-12-24T13:41:43.957Z,4.00
2018-12-24T13:43:22.605Z,3.20
2018-12-24T13:45:03.592Z,3.00
2018-12-24T13:49:03.445Z,5.20
2018-12-24T13:50:43.150Z,0.40
2018-12-24T13:52:19.586Z,1.20
2018-12-24T13:53:55.836Z,5.20
2018-12-24T13:55:40.066Z,5.60
2018-12-24T13:57:16.522Z,4.20
2018-12-24T13:58:58.488Z,5.60
2018-12-24T14:00:40.990Z,3.00
2018-12-24T14:02:56.280Z,6.60
2018-12-24T14:04:34.765Z,8.00
2018-12-24T14:06:22.438Z,11.60
2018-12-24T14:08:08.107Z,8.40
2018-12-24T14:09:44.882Z,6.80
2018-12-24T14:11:21.308Z,5.40
2018-12-24T14:13:14.271Z,4.60
2018-12-24T14:15:14.964Z,2.60
2018-12-24T14:17:25.822Z,4.00
2018-12-24T14:19:13.256Z,4.20
2018-12-24T14:21:03.759Z,7.20
2018-12-24T14:22:50.684Z,1.80
2018-12-24T14:24:26.917Z,0.20
2018-12-24T14:26:04.644Z,10.80
2018-12-24T14:27:42.657Z,4.00
2018-12-24T14:29:18.660Z,5.40
2018-12-24T14:39:25.142Z,3.20
2018-12-24T14:47:58.625Z,3.40
2018-12-24T14:51:37.818Z,4.40
2018-12-24T14:59:59.164Z,4.80
2018-12-24T15:04:15.045Z,3.00
2018-12-24T15:05:47.164Z,3.00
2018-12-24T15:09:21.316Z,1.00
2018-12-24T15:11:16.336Z,6.00
2018-12-24T15:12:52.521Z,5.60
2018-12-24T15:15:07.456Z,3.40
2018-12-24T15:16:58.100Z,6.00
2018-12-24T15:22:53.321Z,4.00
2018-12-24T15:24:20.806Z,4.00
2018-12-24T15:26:17.950Z,3.60
2018-12-24T15:30:09.512Z,4.80
2018-12-24T15:31:51.586Z,5.60
2018-12-24T15:33:47.996Z,8.80
2018-12-24T15:35:45.078Z,6.60
2018-12-24T15:37:24.373Z,3.00
2018-12-24T15:39:21.291Z,6.00
2018-12-24T15:45:08.968Z,4.00
2018-12-24T15:46:57.048Z,4.00
2018-12-24T15:50:21.951Z,7.00
2018-12-24T15:54:49.306Z,6.80
2018-12-24T16:03:22.340Z,6.20
2018-12-24T16:05:01.545Z,6.60
2018-12-24T16:06:42.047Z,5.20
2018-12-24T16:10:37.658Z,8.60
2018-12-24T16:16:06.534Z,7.40
2018-12-24T16:18:21.385Z,14.40
2018-12-24T16:22:53.982Z,17.20
2018-12-24T16:24:43.017Z,12.20
2018-12-24T16:26:47.694Z,8.60
2018-12-24T16:28:28.694Z,12.00
2018-12-24T16:30:20.191Z,6.40
2018-12-24T16:32:35.275Z,10.00
2018-12-24T16:34:09.720Z,7.80
2018-12-24T16:35:58.943Z,7.00
2018-12-24T16:38:05.400Z,7.00
2018-12-24T16:39:42.526Z,7.00
2018-12-24T16:41:20.021Z,9.00
2018-12-24T16:42:59.143Z,10.00
2018-12-24T16:45:03.597Z,12.60
2018-12-24T16:47:33.572Z,12.80
2018-12-24T16:49:13.365Z,16.40
2018-12-24T16:50:53.902Z,15.60
2018-12-24T16:53:10.621Z,16.60
2018-12-24T16:57:07.554Z,17.00
2018-12-24T16:59:11.450Z,9.40
2018-12-24T17:01:15.848Z,18.20
2018-12-24T17:03:02.611Z,11.60
2018-12-24T17:07:49.308Z,14.20
2018-12-24T17:09:30.786Z,13.40
2018-12-24T17:11:16.221Z,17.60
2018-12-24T17:12:55.587Z,17.60
2018-12-24T17:14:32.428Z,18.20
2018-12-24T17:16:12.092Z,22.00
2018-12-24T17:17:50.327Z,19.40
2018-12-24T17:21:57.371Z,24.20
2018-12-24T17:23:48.015Z,23.20
2018-12-24T17:25:36.762Z,20.00
2018-12-24T17:27:24.172Z,16.60
2018-12-24T17:29:14.193Z,18.60
2018-12-24T17:31:40.994Z,16.60
2018-12-24T17:33:13.246Z,7.00
2018-12-24T17:37:22.616Z,9.00
2018-12-24T17:39:10.704Z,6.20
2018-12-24T17:45:52.109Z,5.00
2018-12-24T17:49:47.250Z,7.80
2018-12-24T17:51:56.876Z,15.60
2018-12-24T17:53:39.964Z,17.20
2018-12-24T17:55:18.245Z,28.40
2018-12-24T17:56:56.477Z,19.80
2018-12-24T17:58:34.224Z,28.80
2018-12-24T18:07:58.359Z,27.20
2018-12-24T18:11:50.418Z,27.00
2018-12-24T18:15:51.068Z,26.40
2018-12-24T18:17:27.094Z,30.00
2018-12-24T18:19:03.197Z,25.00
2018-12-24T18:22:42.355Z,25.00
2018-12-24T18:24:19.935Z,30.40
2018-12-24T18:25:59.688Z,21.60
2018-12-24T18:27:42.100Z,27.80
2018-12-24T18:29:56.670Z,27.00
2018-12-24T18:32:00.538Z,34.00
2018-12-24T18:34:03.640Z,29.60
2018-12-24T18:40:21.736Z,5.60
2018-12-24T18:48:19.147Z,11.20
2018-12-24T18:49:59.357Z,17.20
2018-12-24T18:51:39.108Z,13.80
2018-12-24T18:53:15.047Z,10.20
2018-12-24T18:55:46.590Z,12.00
2018-12-24T19:03:46.556Z,10.00
2018-12-24T19:05:37.791Z,21.20
2018-12-24T19:07:25.413Z,10.20
2018-12-24T19:09:13.099Z,16.40
2018-12-24T19:11:41.184Z,9.60
2018-12-24T19:15:13.780Z,16.20
2018-12-24T19:16:50.428Z,12.80
2018-12-24T19:18:26.802Z,19.40
2018-12-24T19:24:33.791Z,17.40
2018-12-24T19:27:03.336Z,9.80
2018-12-24T19:28:29.509Z,21.80
2018-12-24T19:35:14.999Z,19.40
2018-12-24T19:39:32.135Z,12.40
2018-12-24T19:40:56.415Z,21.00
2018-12-24T19:42:34.473Z,14.60
2018-12-24T19:44:17.612Z,18.40
2018-12-24T19:57:11.611Z,13.40
2018-12-24T19:58:50.098Z,15.80
2018-12-24T20:01:11.246Z,20.00
2018-12-24T20:03:01.448Z,16.60
2018-12-24T20:04:46.919Z,14.60
2018-12-24T20:06:31.147Z,12.60
2018-12-24T20:12:27.586Z,16.60
2018-12-24T20:14:17.443Z,17.40
2018-12-24T20:16:31.687Z,27.40
2018-12-24T20:18:01.907Z,28.00
2018-12-24T20:22:58.284Z,19.40
2018-12-24T20:26:40.575Z,32.80
2018-12-24T20:28:47.523Z,14.60
2018-12-24T20:30:42.785Z,8.80
2018-12-24T20:32:57.606Z,15.60
2018-12-24T20:36:51.369Z,30.80
2018-12-24T20:40:59.787Z,17.20
2018-12-24T20:42:36.811Z,5.60
2018-12-24T20:44:20.562Z,20.60
2018-12-24T20:46:55.878Z,9.40
2018-12-24T21:02:03.657Z,14.20
2018-12-24T21:05:10.196Z,12.00
2018-12-24T21:07:00.413Z,23.40
2018-12-24T21:13:32.712Z,15.80
2018-12-24T21:20:02.484Z,16.80
2018-12-24T21:22:14.776Z,12.40
2018-12-24T21:23:49.971Z,22.60
2018-12-24T21:25:41.499Z,18.60
2018-12-24T21:27:30.856Z,14.20
2018-12-24T21:29:18.337Z,6.60
2018-12-24T21:31:05.834Z,9.00
2018-12-24T21:32:52.831Z,13.80
2018-12-24T21:36:48.379Z,13.40
2018-12-24T21:38:43.341Z,14.20
2018-12-24T21:40:22.125Z,15.80
2018-12-24T21:41:59.339Z,7.40
2018-12-24T21:43:35.331Z,8.60
2018-12-24T21:45:13.348Z,17.20
2018-12-24T21:49:23.697Z,15.40
2018-12-24T21:51:53.529Z,6.80
2018-12-24T21:55:44.298Z,7.00
2018-12-24T22:08:05.817Z,10.80
2018-12-24T22:09:44.402Z,10.80
2018-12-24T22:11:39.407Z,7.00
2018-12-24T22:13:51.311Z,7.80
2018-12-24T22:19:14.815Z,7.00
2018-12-24T22:23:20.939Z,13.00
2018-12-24T22:25:29.712Z,14.80
2018-12-24T22:27:11.014Z,7.00
2018-12-24T22:35:06.780Z,14.20
2018-12-24T22:37:21.645Z,12.00
2018-12-24T22:38:57.880Z,9.60
2018-12-24T22:40:35.683Z,7.80
2018-12-24T22:42:14.559Z,9.00
2018-12-24T22:43:52.791Z,10.00
2018-12-24T22:46:07.621Z,10.80
2018-12-24T22:48:06.375Z,9.00
2018-12-24T22:49:42.249Z,11.20
2018-12-24T22:53:53.676Z,6.60
2018-12-24T23:01:55.257Z,10.40
2018-12-24T23:06:04.943Z,8.60
2018-12-24T23:07:43.172Z,12.80
2018-12-24T23:09:21.429Z,13.40
2018-12-24T23:10:57.066Z,10.00
2018-12-24T23:12:33.085Z,7.80
2018-12-24T23:14:08.815Z,16.80
2018-12-24T23:15:44.550Z,14.60
2018-12-24T23:17:20.326Z,8.20
2018-12-24T23:18:58.775Z,10.20
2018-12-24T23:20:34.700Z,10.60
2018-12-24T23:22:42.714Z,13.20
2018-12-24T23:25:56.886Z,15.40
2018-12-24T23:30:07.140Z,11.20
2018-12-24T23:35:23.649Z,9.20
2018-12-24T23:37:11.129Z,10.00
2018-12-24T23:38:47.173Z,11.40
2018-12-24T23:40:23.070Z,17.60
2018-12-24T23:41:58.966Z,23.60
2018-12-24T23:48:04.508Z,14.20
2018-12-24T23:51:58.863Z,15.80
2018-12-24T23:58:00.842Z,18.80
